Etusivu
METAR-TAF:

METAR-TAF

Lentoasemat :

Eureka, Nunavut, Kanada

Leveyspiiri: 79-59N, Pituuspiiri: 085-56W, korkeus merenpinnasta: 10 m

Tämänhetkinen sää

Tämä raportti tehtiin 19 minuuttia sitten, kello 11.00 UTC
Tuuli 5 kn kaakosta
Lämpötila -37°C
Kosteus 66%
Ilmanpaine 1022 hPa
Näkyvyys: 24.1 km
Hajonneita pilviä 4000 ft:n korkeudessa
heikkoa lumisadetta

METAR: CWEU 261100Z 13005KT 15SM -SN BKN040 M37/M41 A3018 RMK SC6 SLP224

Aika: 05:19 (11:19 UTC)


TAF: puuttuu

Säähavainnot ja -ennusteet yli 4000 lentoasemalta (METAR- ja TAF-raportit).

Käytössä olevat sääasemat on merkitty karttaan keltaisilla ja punaisilla pisteillä.

Aseta hiiri pisteen päälle nähdäksesi sääaseman nimen.

Klikkaa sitten nähdäksesi säähavainnot ja -ennusteet.

Kartan vaihtaminen: klikkaa mustalla rastilla varustettuja vihreitä pisteitä, niin voit zoomata sisään; viivalla varustettua vihreää pistettä, niin voit zoomata ulos tai vihreitä nuolia, niin pääset viereisille kartoille.


METAR-TAF: